Weather at Cologne Bonn Airport

Public forecast

Using degrees Celsius for public forecast. Weather courtesy of forecast.io.

Current aviation weather report (METAR) for Cologne Bonn Airport

2024/05/22 03:50 (retrieved 22 minutes ago)

EDDK 220350Z AUTO 18006KT 9999 BKN021 13/13 Q1006 NOSIG

Closest aviation forecast (TAF) to Cologne Bonn Airport

Forecast is more than 6 hours old.

Closest forecast is Kleine Brogel Air Base, 65.7 nm (121.7 km) WNW.

2024/05/21 19:12 (retrieved 9 hours ago)

TAF EBBL 211541Z 2119/2207 23008KT 8000 SCT025 BKN100 TEMPO 2119/2121 5000 -SHRA SCT025TCU TEMPO 2119/2121 4000 SHRA BKN022TCU TEMPO 2119/2120 24010G20KT 3000 TSRA BECMG 2119/2121 5000 BR SCT007 BKN010 TEMPO 2120/2202 4000 -RA SCT005 BKN008 TEMPO 2121/2102 2000 -RADZ SCT002 BKN007